Time;durP1;ratioP1;P1;durP2;ratioP2;P2;SDS_P1;SDS_P2;PMS_P1;PMS_P2;Temp;Humidity;BMP_temperature;BMP_pressure;BME280_temperature;BME280_humidity;BME280_pressure;Samples;Min_cycle;Max_cycle;Signal;HPM_P1;HPM_P2
2021/10/16 00:00:08;;;;;;;15.65;5.80;;;;;;;6.05;73.89;100899.97;5035415;28;20052;-63
2021/10/16 00:02:36;;;;;;;13.93;4.63;;;;;;;6.07;73.48;100901.34;5035065;28;20419;-62
2021/10/16 00:05:05;;;;;;;14.00;5.05;;;;;;;6.05;73.73;100903.56;5035393;28;20515;-62
2021/10/16 00:07:32;;;;;;;12.18;5.03;;;;;;;6.02;73.28;100912.38;5034806;28;20061;-62
2021/10/16 00:10:00;;;;;;;16.17;4.88;;;;;;;6.03;73.73;100908.53;5025953;28;20500;-62
2021/10/16 00:12:28;;;;;;;13.07;5.10;;;;;;;6.02;73.41;100914.31;5015514;28;20440;-62
2021/10/16 00:14:56;;;;;;;15.57;4.88;;;;;;;6.01;73.42;100910.72;5015499;28;20061;-62
2021/10/16 00:17:23;;;;;;;11.07;4.55;;;;;;;5.99;73.03;100912.13;5015973;28;20054;-62
2021/10/16 00:19:52;;;;;;;10.93;4.63;;;;;;;5.96;72.90;100902.41;5015381;28;20064;-62
2021/10/16 00:22:20;;;;;;;9.40;4.65;;;;;;;5.95;73.11;100911.00;5015471;28;20049;-62
2021/10/16 00:24:48;;;;;;;15.68;5.40;;;;;;;5.93;72.94;100907.66;5016058;28;20054;-62
2021/10/16 00:27:16;;;;;;;11.88;4.75;;;;;;;5.90;73.05;100911.78;5016115;28;20057;-62
2021/10/16 00:29:44;;;;;;;9.73;4.85;;;;;;;5.89;73.01;100912.88;5034565;28;20064;-62
2021/10/16 00:32:12;;;;;;;13.48;5.70;;;;;;;5.83;73.83;100902.91;5034904;28;20067;-62
2021/10/16 00:34:39;;;;;;;17.38;5.95;;;;;;;5.85;73.07;100906.22;5034204;28;20054;-62
2021/10/16 00:37:07;;;;;;;10.15;5.50;;;;;;;5.82;72.98;100902.09;5034580;28;20374;-63
2021/10/16 00:39:35;;;;;;;18.60;6.50;;;;;;;5.82;72.73;100910.38;5033095;28;20152;-62
2021/10/16 00:42:02;;;;;;;14.18;6.03;;;;;;;5.78;73.57;100905.66;5026888;28;20448;-62
2021/10/16 00:44:30;;;;;;;17.65;6.88;;;;;;;5.76;73.76;100894.88;5017557;28;20053;-62
2021/10/16 00:46:58;;;;;;;16.48;6.35;;;;;;;5.77;73.76;100907.56;5019897;28;20061;-63
2021/10/16 00:49:26;;;;;;;15.55;6.32;;;;;;;5.76;73.72;100896.81;5034232;28;20049;-62
2021/10/16 00:51:54;;;;;;;14.45;6.28;;;;;;;5.73;73.67;100902.88;5033898;28;20064;-61
2021/10/16 00:54:24;;;;;;;12.23;6.25;;;;;;;5.71;73.48;100911.44;5034971;28;20503;-62
2021/10/16 00:56:53;;;;;;;14.35;5.95;;;;;;;5.70;73.86;100899.53;5034693;28;20053;-63
2021/10/16 00:59:21;;;;;;;14.70;6.13;;;;;;;5.66;73.83;100898.44;5034721;28;20476;-63
2021/10/16 01:01:48;;;;;;;12.60;5.43;;;;;;;5.66;73.66;100903.94;5021861;28;20056;-62
2021/10/16 01:04:15;;;;;;;12.23;5.85;;;;;;;5.66;73.63;100897.59;5014829;28;20061;-63
2021/10/16 01:06:43;;;;;;;11.93;6.03;;;;;;;5.63;73.91;100901.75;5014545;28;20381;-62
2021/10/16 01:09:12;;;;;;;13.10;6.18;;;;;;;5.60;73.70;100901.44;5015001;28;20065;-63
2021/10/16 01:11:49;;;;;;;10.77;5.18;;;;;;;5.57;73.55;100902.81;5014446;28;20054;-63
2021/10/16 01:14:17;;;;;;;12.80;5.53;;;;;;;5.55;73.18;100895.91;5014494;28;20054;-62
2021/10/16 01:16:48;;;;;;;13.30;5.78;;;;;;;5.52;73.36;100897.25;5025887;28;20053;-62
2021/10/16 01:19:17;;;;;;;19.40;5.75;;;;;;;5.49;73.56;100890.34;5034096;28;20060;-62
2021/10/16 01:21:48;;;;;;;11.32;4.97;;;;;;;5.49;73.84;100892.28;5033260;28;20064;-62
2021/10/16 01:24:17;;;;;;;9.88;5.65;;;;;;;5.49;73.51;100892.28;5029582;28;20060;-62
2021/10/16 01:26:48;;;;;;;12.73;5.43;;;;;;;5.43;73.91;100888.66;5033835;28;20064;-62
2021/10/16 01:29:18;;;;;;;14.35;5.15;;;;;;;5.46;74.03;100890.09;5031878;28;20053;-62
2021/10/16 01:31:45;;;;;;;10.50;5.20;;;;;;;5.44;73.79;100884.00;5013636;28;20401;-62
2021/10/16 01:34:13;;;;;;;10.48;5.50;;;;;;;5.44;73.76;100884.00;5013638;28;20473;-63
2021/10/16 01:36:41;;;;;;;13.55;5.28;;;;;;;5.44;73.41;100892.28;5013629;28;20058;-63
2021/10/16 01:39:11;;;;;;;14.30;5.50;;;;;;;5.39;73.08;100892.25;5013302;28;20061;-62
2021/10/16 01:41:38;;;;;;;13.15;5.22;;;;;;;5.36;73.03;100887.28;5031570;28;20067;-62
2021/10/16 01:44:06;;;;;;;11.55;5.50;;;;;;;5.35;73.22;100891.13;5033300;28;20057;-62
2021/10/16 01:46:34;;;;;;;13.07;4.75;;;;;;;5.35;73.23;100886.41;5032949;28;20049;-63
2021/10/16 01:49:08;;;;;;;12.07;5.55;;;;;;;5.30;73.38;100894.69;5032546;28;20065;-62
2021/10/16 01:51:36;;;;;;;14.05;5.78;;;;;;;5.32;73.27;100897.19;5033058;28;20392;-62
2021/10/16 01:54:04;;;;;;;13.38;5.63;;;;;;;5.24;73.86;100893.81;5032452;28;20049;-62
2021/10/16 01:56:32;;;;;;;11.07;5.05;;;;;;;5.23;73.83;100897.72;5031453;28;20049;-63
2021/10/16 01:59:12;;;;;;;16.52;5.32;;;;;;;5.20;74.24;100881.66;5032887;28;20045;-63
2021/10/16 02:01:40;;;;;;;12.57;4.85;;;;;;;5.15;74.16;100887.16;5033176;28;20049;-62
2021/10/16 02:04:07;;;;;;;14.50;4.88;;;;;;;5.12;74.12;100890.44;5033279;28;20053;-62
2021/10/16 02:06:35;;;;;;;13.32;5.45;;;;;;;5.14;74.08;100879.13;5032894;28;20057;-62
2021/10/16 02:09:03;;;;;;;10.68;4.68;;;;;;;5.16;73.90;100893.50;5030806;28;20056;-62
2021/10/16 02:11:32;;;;;;;11.25;4.68;;;;;;;5.13;73.35;100892.13;5012894;28;20431;-62
2021/10/16 02:14:00;;;;;;;12.27;5.00;;;;;;;5.13;73.29;100888.53;5013072;28;20054;-62
2021/10/16 02:16:28;;;;;;;10.50;5.05;;;;;;;5.15;73.10;100887.16;5012889;28;20049;-62
2021/10/16 02:18:57;;;;;;;12.18;4.88;;;;;;;5.12;73.64;100884.91;5013009;28;20057;-62
2021/10/16 02:21:25;;;;;;;10.27;4.70;;;;;;;5.09;73.71;100888.22;5013018;28;20054;-62
2021/10/16 02:23:52;;;;;;;14.20;4.80;;;;;;;5.11;74.00;100885.22;5017243;28;20071;-61
2021/10/16 02:26:20;;;;;;;8.07;4.47;;;;;;;5.09;74.20;100878.00;5023248;28;20050;-62
2021/10/16 02:28:49;;;;;;;11.43;4.78;;;;;;;5.13;74.04;100885.78;5012704;28;20495;-62
2021/10/16 02:31:16;;;;;;;12.57;5.28;;;;;;;5.18;74.10;100891.31;5012552;28;20069;-61
2021/10/16 02:33:43;;;;;;;12.23;4.30;;;;;;;5.14;74.29;100896.53;5013658;28;20054;-62
2021/10/16 02:36:11;;;;;;;8.45;3.97;;;;;;;5.16;74.07;100877.75;5013123;28;20061;-61
2021/10/16 02:38:38;;;;;;;10.85;4.50;;;;;;;5.19;73.69;100882.78;5013217;28;20057;-62
2021/10/16 02:41:05;;;;;;;9.70;4.90;;;;;;;5.18;73.54;100891.31;5025949;28;20057;-62
2021/10/16 02:43:33;;;;;;;12.25;4.85;;;;;;;5.18;73.37;100896.84;5032561;28;20053;-62
2021/10/16 02:46:01;;;;;;;11.23;4.25;;;;;;;5.20;73.48;100905.69;5032407;28;20049;-62
2021/10/16 02:48:29;;;;;;;9.20;3.50;;;;;;;5.09;74.16;100904.81;5033171;28;20510;-62
2021/10/16 02:50:56;;;;;;;8.15;4.35;;;;;;;5.13;74.19;100905.94;5031646;28;20067;-62
2021/10/16 02:53:23;;;;;;;7.32;4.13;;;;;;;5.18;73.38;100907.88;5032611;28;20447;-62
2021/10/16 02:55:50;;;;;;;15.07;4.90;;;;;;;5.18;73.63;100910.66;5030259;28;20052;-61
2021/10/16 02:58:18;;;;;;;20.00;6.38;;;;;;;5.16;73.89;100908.13;5032145;28;20049;-62
2021/10/16 03:00:45;;;;;;;19.45;6.25;;;;;;;5.15;74.14;100908.44;5032241;28;20054;-61
2021/10/16 03:03:14;;;;;;;22.83;6.50;;;;;;;5.15;74.40;100913.94;5036000;28;20484;-62
2021/10/16 03:05:41;;;;;;;21.05;6.03;;;;;;;5.14;74.75;100910.34;5036146;28;20504;-62
2021/10/16 03:08:08;;;;;;;26.38;7.30;;;;;;;5.18;74.46;100924.44;5036285;28;20057;-61
2021/10/16 03:10:35;;;;;;;24.10;6.95;;;;;;;5.21;75.01;100913.72;5021925;28;20372;-62
2021/10/16 03:13:03;;;;;;;25.15;7.80;;;;;;;5.24;74.92;100917.84;5016149;28;20105;-62
2021/10/16 03:15:30;;;;;;;24.60;6.30;;;;;;;5.21;74.37;100923.94;5016312;28;20487;-62
2021/10/16 03:17:58;;;;;;;21.92;6.65;;;;;;;5.18;74.42;100918.94;5016470;28;20057;-62
2021/10/16 03:20:26;;;;;;;19.70;6.97;;;;;;;5.15;74.71;100914.78;5016488;28;20053;-61
2021/10/16 03:22:54;;;;;;;17.00;6.13;;;;;;;5.16;74.46;100913.66;5016373;28;20061;-62
2021/10/16 03:25:22;;;;;;;19.90;7.45;;;;;;;5.13;74.12;100918.91;5032107;28;20054;-61
2021/10/16 03:27:49;;;;;;;13.52;5.30;;;;;;;5.06;74.48;100916.34;5035408;28;20076;-62
2021/10/16 03:30:17;;;;;;;13.60;5.10;;;;;;;5.05;74.36;100918.31;5035981;28;20052;-61
2021/10/16 03:32:44;;;;;;;17.90;5.68;;;;;;;5.08;74.24;100914.16;5035614;28;20045;-61
2021/10/16 03:35:11;;;;;;;15.52;5.93;;;;;;;5.03;74.36;100908.63;5035265;28;20408;-62
2021/10/16 03:37:40;;;;;;;13.98;4.82;;;;;;;5.02;73.91;100906.97;5035493;28;20065;-61
2021/10/16 03:40:08;;;;;;;12.80;5.07;;;;;;;5.04;73.70;100911.13;5017412;28;20050;-61
2021/10/16 03:42:36;;;;;;;17.63;5.47;;;;;;;5.05;73.72;100911.94;5016260;28;20058;-62
2021/10/16 03:45:03;;;;;;;14.90;6.07;;;;;;;5.05;73.58;100912.78;5015724;28;20054;-61
2021/10/16 03:47:33;;;;;;;12.25;5.45;;;;;;;5.05;74.06;100910.00;5015995;28;20054;-62
2021/10/16 03:50:00;;;;;;;11.10;5.20;;;;;;;5.00;74.48;100917.47;5015927;28;20066;-62
2021/10/16 03:52:27;;;;;;;14.48;5.72;;;;;;;4.96;73.92;100917.16;5015574;28;20050;-62
2021/10/16 03:54:56;;;;;;;13.15;5.43;;;;;;;4.96;74.31;100911.63;5015773;28;20061;-61
2021/10/16 03:57:23;;;;;;;12.50;5.65;;;;;;;4.96;74.20;100917.16;5015268;28;20593;-62
2021/10/16 03:59:51;;;;;;;14.18;5.57;;;;;;;4.98;73.77;100919.66;5015171;28;20050;-62
2021/10/16 04:02:19;;;;;;;12.75;5.65;;;;;;;4.76;74.03;100923.34;5015103;28;20062;-61
2021/10/16 04:04:46;;;;;;;13.13;5.35;;;;;;;4.85;74.22;100921.78;5015264;28;20062;-61
2021/10/16 04:07:14;;;;;;;13.32;5.38;;;;;;;4.86;74.29;100923.41;5015016;28;20057;-62
2021/10/16 04:09:43;;;;;;;9.25;5.00;;;;;;;4.81;74.30;100931.69;5033148;28;20053;-61
2021/10/16 04:12:12;;;;;;;13.05;5.43;;;;;;;4.81;73.94;100920.63;5034210;28;20064;-59
2021/10/16 04:14:39;;;;;;;9.23;4.32;;;;;;;4.79;74.08;100919.25;5027307;28;20073;-60
2021/10/16 04:17:06;;;;;;;9.13;4.60;;;;;;;4.78;73.90;100918.38;5014871;28;20061;-60
2021/10/16 04:19:34;;;;;;;8.02;4.57;;;;;;;4.75;73.86;100918.94;5014718;28;20053;-59
2021/10/16 04:22:01;;;;;;;10.02;4.68;;;;;;;4.74;73.68;100924.72;5014602;28;20064;-60
2021/10/16 04:24:28;;;;;;;9.32;5.03;;;;;;;4.72;73.85;100921.38;5025411;28;20053;-59
2021/10/16 04:26:55;;;;;;;10.27;5.07;;;;;;;4.73;73.93;100918.38;5034547;28;20054;-60
2021/10/16 04:29:24;;;;;;;9.77;4.88;;;;;;;4.74;74.00;100911.72;5033925;28;20072;-59
2021/10/16 04:31:52;;;;;;;11.15;4.75;;;;;;;4.78;74.05;100917.56;5034378;28;20496;-60
2021/10/16 04:34:19;;;;;;;9.82;4.38;;;;;;;4.71;74.37;100920.56;5034496;28;20061;-59
2021/10/16 04:36:46;;;;;;;9.52;4.70;;;;;;;4.71;74.51;100920.56;5034394;28;20049;-60
2021/10/16 04:39:13;;;;;;;10.80;4.50;;;;;;;4.74;73.98;100921.94;5023952;28;20045;-60
2021/10/16 04:41:41;;;;;;;9.35;4.93;;;;;;;4.71;74.11;100931.59;5014396;28;20050;-60
2021/10/16 04:44:09;;;;;;;9.80;4.68;;;;;;;4.68;74.04;100924.69;5014735;28;20054;-60
2021/10/16 04:46:38;;;;;;;9.90;4.65;;;;;;;4.73;73.95;100928.56;5014115;28;20057;-60
2021/10/16 04:49:08;;;;;;;9.55;5.03;;;;;;;4.73;73.49;100925.81;5014547;28;20061;-60
2021/10/16 04:51:35;;;;;;;12.90;4.80;;;;;;;4.64;74.15;100936.47;5014356;28;20053;-60
2021/10/16 04:54:03;;;;;;;10.02;5.10;;;;;;;4.68;73.84;100932.09;5014571;28;20411;-60
2021/10/16 04:56:30;;;;;;;10.65;4.93;;;;;;;4.71;74.06;100928.84;5014375;28;20061;-60
2021/10/16 04:58:58;;;;;;;10.35;4.90;;;;;;;4.72;74.14;100932.41;5014432;28;20069;-59
2021/10/16 05:01:25;;;;;;;10.63;5.18;;;;;;;4.78;74.00;100931.38;5014449;28;20046;-60
2021/10/16 05:03:54;;;;;;;8.05;4.50;;;;;;;4.82;74.17;100933.31;5014296;28;20053;-60
2021/10/16 05:06:21;;;;;;;9.75;5.00;;;;;;;4.86;74.33;100931.69;5013892;28;20058;-60
2021/10/16 05:08:49;;;;;;;8.85;4.60;;;;;;;4.85;74.33;100931.94;5024769;28;20053;-60
2021/10/16 05:11:16;;;;;;;9.00;4.15;;;;;;;4.85;73.82;100924.53;5033683;28;20050;-60
2021/10/16 05:13:44;;;;;;;18.17;6.22;;;;;;;4.88;74.35;100925.91;5033855;28;20053;-60
2021/10/16 05:16:11;;;;;;;21.42;5.82;;;;;;;4.93;74.26;100917.66;5013980;28;20061;-60
2021/10/16 05:18:38;;;;;;;16.73;5.43;;;;;;;4.92;74.05;100915.19;5014228;28;20089;-60
2021/10/16 05:21:07;;;;;;;22.55;6.07;;;;;;;4.96;73.98;100910.81;5013706;28;20050;-61
2021/10/16 05:23:35;;;;;;;39.93;7.73;;;;;;;4.92;74.42;100906.91;5008925;28;20050;-61
2021/10/16 05:26:03;;;;;;;49.55;8.15;;;;;;;4.95;74.71;100915.47;5013140;28;20476;-61
2021/10/16 05:28:30;;;;;;;42.95;7.57;;;;;;;4.96;74.50;100919.09;5013131;28;20490;-61
2021/10/16 05:30:58;;;;;;;46.30;7.85;;;;;;;4.92;74.72;100912.44;5013649;28;20045;-62
2021/10/16 05:33:25;;;;;;;45.55;7.80;;;;;;;4.84;74.76;100909.06;5013763;28;20054;-61
2021/10/16 05:35:52;;;;;;;26.10;7.28;;;;;;;4.98;74.23;100919.66;5013644;28;20061;-61
2021/10/16 05:38:21;;;;;;;17.58;7.28;;;;;;;4.96;74.60;100919.91;5013841;28;20403;-62
2021/10/16 05:40:48;;;;;;;15.55;6.35;;;;;;;4.99;74.60;100913.84;5013344;28;20181;-62
2021/10/16 05:43:16;;;;;;;18.23;6.78;;;;;;;5.07;74.77;100910.59;5013370;28;20053;-61
2021/10/16 05:45:43;;;;;;;20.20;6.63;;;;;;;5.12;74.35;100917.22;5013410;28;20057;-60
2021/10/16 05:48:10;;;;;;;13.18;6.40;;;;;;;5.02;74.30;100926.31;5013304;28;20061;-61
2021/10/16 05:50:38;;;;;;;14.63;6.70;;;;;;;5.07;73.92;100920.81;5012995;28;20057;-61
2021/10/16 05:53:05;;;;;;;16.70;6.65;;;;;;;5.08;73.66;100925.22;5018791;28;20053;-62
2021/10/16 05:55:34;;;;;;;12.30;6.38;;;;;;;5.13;74.06;100925.25;5033102;28;20061;-61
2021/10/16 05:58:01;;;;;;;11.43;6.70;;;;;;;5.08;74.07;100936.25;5033002;28;20515;-60
2021/10/16 06:00:28;;;;;;;12.80;6.43;;;;;;;5.01;74.18;100933.72;5033025;28;20049;-62
2021/10/16 06:02:56;;;;;;;13.20;6.55;;;;;;;5.11;73.53;100921.94;5032957;28;20064;-62
2021/10/16 06:05:24;;;;;;;12.07;6.03;;;;;;;5.15;73.54;100928.59;5032899;28;20054;-62
2021/10/16 06:07:51;;;;;;;12.55;5.95;;;;;;;5.17;73.47;100929.16;5030910;28;20053;-62
2021/10/16 06:10:18;;;;;;;10.88;5.22;;;;;;;5.01;74.00;100935.66;5032624;28;20456;-61
2021/10/16 06:12:49;;;;;;;12.10;7.05;;;;;;;5.10;73.72;100936.81;5032685;28;20060;-61
2021/10/16 06:15:16;;;;;;;10.23;5.28;;;;;;;5.08;73.82;100936.25;5020346;28;20054;-62
2021/10/16 06:17:44;;;;;;;11.63;5.68;;;;;;;5.08;73.66;100936.25;5012842;28;20057;-61
2021/10/16 06:20:12;;;;;;;10.90;5.63;;;;;;;5.22;73.56;100936.63;5012592;28;20106;-62
2021/10/16 06:22:39;;;;;;;11.20;5.15;;;;;;;5.40;73.86;100940.88;5015696;28;20064;-61
2021/10/16 06:25:07;;;;;;;13.40;5.90;;;;;;;5.50;73.87;100949.19;5028158;28;20049;-61
2021/10/16 06:27:35;;;;;;;10.60;4.95;;;;;;;5.66;73.52;100950.94;5032524;28;20060;-62
2021/10/16 06:30:04;;;;;;;8.55;4.60;;;;;;;5.81;73.44;100952.09;5017350;28;20058;-62
2021/10/16 06:32:32;;;;;;;11.75;6.18;;;;;;;5.87;73.27;100953.78;5012988;28;20054;-61
2021/10/16 06:35:02;;;;;;;12.35;6.13;;;;;;;5.93;73.78;100949.94;5012605;28;20056;-61
2021/10/16 06:37:29;;;;;;;13.10;6.75;;;;;;;5.96;73.56;100948.59;5012964;28;20076;-62
2021/10/16 06:39:56;;;;;;;9.65;4.93;;;;;;;6.16;73.21;100950.59;5012856;28;20060;-61
2021/10/16 06:42:24;;;;;;;7.82;4.57;;;;;;;6.26;72.78;100945.91;5012231;28;20057;-61
2021/10/16 06:44:51;;;;;;;10.13;5.38;;;;;;;6.45;72.87;100951.75;5020449;28;20416;-61
2021/10/16 06:47:20;;;;;;;8.70;5.45;;;;;;;6.61;72.72;100957.28;5017615;28;20062;-62
2021/10/16 06:49:47;;;;;;;9.67;4.90;;;;;;;6.79;72.55;100958.69;5012339;28;20543;-62
2021/10/16 06:52:15;;;;;;;11.40;4.85;;;;;;;6.84;72.61;100950.38;5011735;28;20485;-61
2021/10/16 06:54:42;;;;;;;10.32;4.43;;;;;;;6.99;71.45;100957.81;5012078;28;20050;-62
2021/10/16 06:57:09;;;;;;;8.27;4.72;;;;;;;7.04;71.77;100955.91;5012037;28;20053;-61
2021/10/16 06:59:37;;;;;;;8.70;5.03;;;;;;;7.21;72.43;100957.53;5012387;28;20050;-62
2021/10/16 07:02:04;;;;;;;9.23;4.70;;;;;;;7.27;72.33;100953.66;5029775;28;20053;-61
2021/10/16 07:04:33;;;;;;;8.05;4.30;;;;;;;7.48;72.35;100955.25;5032262;28;20053;-62
2021/10/16 07:07:00;;;;;;;6.63;4.55;;;;;;;7.70;71.59;100952.09;5032340;28;20480;-62
2021/10/16 07:09:27;;;;;;;8.30;4.85;;;;;;;7.81;70.81;100958.47;5032180;28;20060;-61
2021/10/16 07:11:55;;;;;;;10.38;5.90;;;;;;;7.92;70.76;100960.06;5028757;28;20491;-62
2021/10/16 07:14:22;;;;;;;8.48;5.65;;;;;;;8.00;69.60;100961.44;5010342;28;20058;-62
2021/10/16 07:16:49;;;;;;;9.32;7.00;;;;;;;8.14;69.86;100965.22;5026451;28;20062;-62
2021/10/16 07:19:17;;;;;;;10.35;6.28;;;;;;;8.29;69.06;100974.56;5029497;28;20053;-61
2021/10/16 07:21:46;;;;;;;8.23;5.55;;;;;;;8.38;69.52;100967.31;5012523;28;20530;-61
2021/10/16 07:24:13;;;;;;;7.32;4.72;;;;;;;8.45;68.71;100972.56;5014980;28;20411;-61
2021/10/16 07:26:41;;;;;;;9.02;5.25;;;;;;;8.56;68.72;100976.09;5017552;28;20053;-62
2021/10/16 07:29:08;;;;;;;7.05;4.50;;;;;;;8.67;68.52;100972.13;5012234;28;20399;-61
2021/10/16 07:31:36;;;;;;;10.18;5.25;;;;;;;8.76;67.71;100973.19;5012068;28;20053;-62
2021/10/16 07:34:03;;;;;;;8.65;5.18;;;;;;;8.87;67.89;100982.25;5012004;28;20054;-61
2021/10/16 07:36:34;;;;;;;7.90;5.15;;;;;;;8.91;67.76;100973.03;5011803;28;20121;-60
2021/10/16 07:39:04;;;;;;;9.73;5.63;;;;;;;9.04;68.80;100985.44;5012458;28;20054;-61
2021/10/16 07:41:31;;;;;;;8.23;4.70;;;;;;;9.08;68.84;100974.56;5012059;28;20439;-62
2021/10/16 07:43:59;;;;;;;7.25;4.93;;;;;;;9.34;67.64;100970.41;5011817;28;20060;-61
2021/10/16 07:46:26;;;;;;;10.45;5.10;;;;;;;9.40;67.17;100973.97;5014425;28;20065;-61
2021/10/16 07:48:53;;;;;;;15.75;6.95;;;;;;;9.58;66.62;100966.81;5014752;28;20060;-62
2021/10/16 07:51:21;;;;;;;15.75;6.18;;;;;;;9.67;66.26;100970.59;5014199;28;20372;-61
2021/10/16 07:53:48;;;;;;;10.75;5.95;;;;;;;9.84;65.60;100974.88;5015701;28;20062;-62
2021/10/16 07:56:17;;;;;;;15.07;6.15;;;;;;;9.97;65.71;100979.69;5016004;28;20050;-62
2021/10/16 07:58:44;;;;;;;8.60;5.10;;;;;;;10.08;65.21;100975.66;5035150;28;20049;-61
2021/10/16 08:01:12;;;;;;;8.18;5.20;;;;;;;10.29;64.28;100976.25;5035221;28;20072;-62
2021/10/16 08:03:39;;;;;;;10.45;5.63;;;;;;;10.32;63.81;100977.59;5035406;28;20065;-61
2021/10/16 08:06:07;;;;;;;8.60;5.18;;;;;;;10.51;63.56;100969.25;5030300;28;20049;-62
2021/10/16 08:08:34;;;;;;;11.52;5.28;;;;;;;10.67;63.21;100970.66;5017931;28;20056;-61
2021/10/16 08:11:01;;;;;;;10.52;5.18;;;;;;;10.81;62.63;100972.66;5015637;28;20515;-61
2021/10/16 08:13:31;;;;;;;8.15;4.57;;;;;;;10.86;62.41;100976.22;5023070;28;20072;-62
2021/10/16 08:15:59;;;;;;;12.27;7.10;;;;;;;10.96;61.82;100973.25;5018135;28;20126;-62
2021/10/16 08:18:26;;;;;;;8.70;4.75;;;;;;;11.04;61.23;100974.50;5014183;28;20050;-62
2021/10/16 08:20:54;;;;;;;8.77;4.60;;;;;;;11.17;61.20;100982.09;5015053;28;20057;-59
2021/10/16 08:23:22;;;;;;;10.25;5.80;;;;;;;11.30;60.69;100976.84;5015594;28;20050;-60
2021/10/16 08:25:50;;;;;;;9.95;5.85;;;;;;;11.39;60.63;100972.22;5014997;28;20211;-62
2021/10/16 08:28:18;;;;;;;8.80;5.20;;;;;;;11.54;60.05;100976.66;5014619;28;20415;-62
2021/10/16 08:30:50;;;;;;;8.80;4.40;;;;;;;11.63;59.82;100976.78;5014657;28;20057;-61
2021/10/16 08:33:18;;;;;;;7.43;4.32;;;;;;;11.74;59.12;100979.06;5014205;28;20050;-62
2021/10/16 08:35:46;;;;;;;8.57;5.15;;;;;;;11.89;58.73;100977.94;5014286;28;20054;-59
2021/10/16 08:38:15;;;;;;;11.07;5.30;;;;;;;11.97;58.48;100976.41;5012575;28;20042;-60
2021/10/16 08:40:43;;;;;;;9.65;5.07;;;;;;;12.11;58.28;100973.56;5031942;28;20049;-60
2021/10/16 08:43:10;;;;;;;8.02;4.38;;;;;;;12.14;57.96;100967.38;5024702;28;20057;-61
2021/10/16 08:45:37;;;;;;;8.52;4.50;;;;;;;12.35;58.00;100976.94;5017951;28;20064;-61
2021/10/16 08:48:07;;;;;;;6.05;4.13;;;;;;;12.38;58.04;100973.53;5014166;28;20061;-60
2021/10/16 08:50:36;;;;;;;7.25;5.03;;;;;;;12.58;57.56;100974.22;5014084;28;20058;-60
2021/10/16 08:53:04;;;;;;;5.87;4.23;;;;;;;12.64;57.10;100972.94;5027142;28;20060;-60
2021/10/16 08:55:31;;;;;;;10.93;4.55;;;;;;;12.79;56.35;100974.53;5018980;28;20092;-60
2021/10/16 08:57:59;;;;;;;9.50;4.32;;;;;;;12.93;56.22;100977.25;5014288;28;20054;-60
2021/10/16 09:00:49;;;;;;;7.43;4.30;;;;;;;13.06;55.91;100975.53;5013646;28;20416;-60
2021/10/16 09:03:20;;;;;;;7.00;5.38;;;;;;;13.16;56.11;100978.06;5031036;28;20065;-60
2021/10/16 09:06:09;;;;;;;6.97;4.50;;;;;;;13.31;55.66;100955.34;5028859;28;20049;-60
2021/10/16 09:08:38;;;;;;;8.93;5.57;;;;;;;13.43;55.48;100965.09;5028102;28;20068;-60
2021/10/16 09:11:14;;;;;;;8.45;5.13;;;;;;;13.64;55.46;100968.97;5032903;28;20057;-60
2021/10/16 09:13:46;;;;;;;5.72;3.90;;;;;;;13.75;54.86;100964.75;5028305;28;20050;-60
2021/10/16 09:16:21;;;;;;;8.13;4.70;;;;;;;13.91;54.35;100961.50;4994362;28;20054;-60
2021/10/16 09:18:54;;;;;;;12.85;4.63;;;;;;;14.17;53.67;100958.75;5017897;28;20065;-60
2021/10/16 09:21:25;;;;;;;8.25;4.80;;;;;;;14.32;53.71;100965.84;5020720;28;20068;-60
2021/10/16 09:24:06;;;;;;;8.13;5.18;;;;;;;14.45;53.06;100964.91;5026406;28;20042;-60
2021/10/16 09:26:36;;;;;;;8.63;4.72;;;;;;;14.53;53.72;100966.03;5013677;28;20054;-59
2021/10/16 09:29:06;;;;;;;9.20;4.88;;;;;;;14.60;53.41;100964.44;5014051;28;20061;-59
2021/10/16 09:31:36;;;;;;;9.57;5.47;;;;;;;14.50;53.91;100964.72;5013250;28;20065;-62
2021/10/16 09:34:06;;;;;;;9.85;4.75;;;;;;;16.23;49.73;100958.97;5013595;28;20057;-62
2021/10/16 09:36:36;;;;;;;9.05;5.25;;;;;;;16.68;47.89;100960.28;5013320;28;20069;-61
2021/10/16 09:39:06;;;;;;;9.63;4.50;;;;;;;16.26;48.93;100958.28;5021122;28;20403;-60
2021/10/16 09:41:35;;;;;;;8.00;4.75;;;;;;;16.02;49.94;100958.91;5027814;28;20496;-60
2021/10/16 09:44:04;;;;;;;7.15;4.25;;;;;;;16.09;49.69;100964.84;5013490;28;20479;-61
2021/10/16 09:46:32;;;;;;;9.13;4.88;;;;;;;16.17;49.71;100955.53;5013541;28;20064;-61
2021/10/16 09:49:10;;;;;;;8.60;4.32;;;;;;;16.30;49.22;100952.81;5013631;28;20053;-60
2021/10/16 09:51:51;;;;;;;7.80;4.13;;;;;;;16.26;49.30;100960.28;5021045;28;20054;-60
2021/10/16 09:54:19;;;;;;;7.35;4.40;;;;;;;16.43;49.16;100960.16;5026908;28;20069;-60
2021/10/16 09:56:48;;;;;;;8.48;4.05;;;;;;;16.60;48.74;100962.81;5018373;28;20111;-61
2021/10/16 09:59:18;;;;;;;8.90;4.15;;;;;;;16.69;48.88;100959.94;5013358;28;20099;-61
2021/10/16 10:01:46;;;;;;;7.85;4.70;;;;;;;16.97;47.89;100959.41;5015264;28;20492;-61
2021/10/16 10:04:18;;;;;;;8.05;4.68;;;;;;;17.25;47.98;100966.03;5013303;28;20054;-61
2021/10/16 10:06:47;;;;;;;7.50;4.70;;;;;;;17.31;47.29;100961.03;5029274;28;20061;-60
2021/10/16 10:09:15;;;;;;;9.87;4.67;;;;;;;17.42;46.94;100961.38;5014415;28;20050;-61
2021/10/16 10:11:47;;;;;;;8.25;5.43;;;;;;;17.24;47.48;100963.59;5032346;28;20053;-61
2021/10/16 10:14:18;;;;;;;8.13;4.72;;;;;;;17.37;47.98;100965.25;5018710;28;20045;-59
2021/10/16 10:16:47;;;;;;;6.53;4.20;;;;;;;17.24;48.91;100964.41;5012778;28;20415;-59
2021/10/16 10:19:17;;;;;;;10.70;5.18;;;;;;;17.09;48.79;100959.41;5025491;28;20050;-57
2021/10/16 10:21:47;;;;;;;9.25;4.40;;;;;;;17.17;48.97;100968.94;5021351;28;20053;-57
2021/10/16 10:24:15;;;;;;;9.27;4.40;;;;;;;17.25;48.61;100966.03;5018028;28;20061;-58
2021/10/16 10:26:44;;;;;;;9.20;4.10;;;;;;;17.33;48.77;100969.94;5012958;28;20050;-57
2021/10/16 10:29:13;;;;;;;9.50;4.47;;;;;;;17.32;48.37;100965.47;5018106;28;20511;-57
2021/10/16 10:32:01;;;;;;;8.70;5.22;;;;;;;17.34;48.49;100965.94;5017220;28;20072;-57
2021/10/16 10:34:35;;;;;;;9.63;4.30;;;;;;;17.43;48.06;100966.69;5012961;28;20061;-58
2021/10/16 10:37:13;;;;;;;7.85;4.32;;;;;;;17.63;47.76;100964.94;5013072;28;20054;-57
2021/10/16 10:39:52;;;;;;;8.40;4.22;;;;;;;17.92;46.93;100962.31;5027029;28;20053;-57
2021/10/16 10:42:50;;;;;;;9.90;4.90;;;;;;;18.36;46.16;100956.84;5031276;28;20052;-57
2021/10/16 10:45:31;;;;;;;10.88;4.57;;;;;;;19.62;42.88;100942.28;5032101;28;20060;-57
2021/10/16 10:48:01;;;;;;;8.43;4.63;;;;;;;21.82;39.34;100945.75;5032136;28;20053;-57
2021/10/16 10:50:52;;;;;;;7.38;4.07;;;;;;;23.27;34.87;100938.81;5031566;28;20057;-57
2021/10/16 10:53:28;;;;;;;8.38;3.10;;;;;;;23.31;35.73;100933.16;5032014;28;20065;-57
2021/10/16 10:55:57;;;;;;;5.43;3.00;;;;;;;24.79;31.71;100929.38;5030505;28;20057;-58
2021/10/16 10:58:44;;;;;;;;;;;;;;;24.35;32.00;100928.31;5032196;28;20488;-57
2021/10/16 11:01:43;;;;;;;10.15;2.28;;;;;;;24.78;30.55;100924.88;5031629;28;19931;-57
2021/10/16 11:04:11;;;;;;;10.05;2.40;;;;;;;23.76;32.09;100921.78;5031821;28;20049;-57
2021/10/16 11:06:57;;;;;;;7.72;2.35;;;;;;;23.64;31.93;100925.72;5031465;28;20049;-57
2021/10/16 11:09:24;;;;;;;8.75;2.10;;;;;;;22.50;33.33;100928.94;5029591;28;20058;-58
2021/10/16 11:11:54;;;;;;;10.40;2.80;;;;;;;22.69;34.44;100923.09;5031953;28;20049;-58
2021/10/16 11:14:21;;;;;;;7.03;2.72;;;;;;;24.21;31.30;100920.50;5026907;28;20050;-57
2021/10/16 11:16:55;;;;;;;7.13;2.85;;;;;;;23.27;31.21;100916.06;5011934;28;20073;-57
2021/10/16 11:19:23;;;;;;;7.13;2.20;;;;;;;23.01;32.57;100913.34;5011538;28;20053;-58
2021/10/16 11:21:55;;;;;;;8.55;3.30;;;;;;;22.50;33.57;100923.25;5012180;28;20407;-57
2021/10/16 11:24:23;;;;;;;9.38;2.60;;;;;;;22.17;35.08;100913.44;5023952;28;20049;-58
2021/10/16 11:26:57;;;;;;;10.43;2.53;;;;;;;21.77;34.25;100919.72;5035708;28;20054;-58
2021/10/16 11:29:29;;;;;;;11.93;4.88;;;;;;;21.52;34.94;100916.47;5035275;28;20499;-58
2021/10/16 11:32:11;;;;;;;7.28;2.70;;;;;;;20.63;36.95;100900.19;5035737;28;20061;-58
2021/10/16 11:34:39;;;;;;;9.65;2.85;;;;;;;20.45;38.19;100907.44;5035261;28;20064;-58